sensor_id;sensor_type;location;lat;lon;timestamp;pressure;altitude;pressure_sealevel;temperature;humidity
29909;BME280;36247;51.952;6.146;2023-05-17T00:02:05;102342.28;;;7.98;100.00
29909;BME280;36247;51.952;6.146;2023-05-17T00:04:31;102331.19;;;8.05;100.00
29909;BME280;36247;51.952;6.146;2023-05-17T00:06:58;102335.75;;;8.09;100.00
29909;BME280;36247;51.952;6.146;2023-05-17T00:09:23;102334.88;;;8.08;100.00
29909;BME280;36247;51.952;6.146;2023-05-17T00:11:49;102327.97;;;8.12;100.00
29909;BME280;36247;51.952;6.146;2023-05-17T00:14:15;102324.31;;;8.08;100.00
29909;BME280;36247;51.952;6.146;2023-05-17T00:16:40;102339.09;;;8.05;100.00
29909;BME280;36247;51.952;6.146;2023-05-17T00:19:06;102327.09;;;8.11;100.00
29909;BME280;36247;51.952;6.146;2023-05-17T00:21:33;102330.94;;;8.18;100.00
29909;BME280;36247;51.952;6.146;2023-05-17T00:23:59;102320.16;;;8.14;100.00
29909;BME280;36247;51.952;6.146;2023-05-17T00:26:25;102322.28;;;8.03;100.00
29909;BME280;36247;51.952;6.146;2023-05-17T00:28:50;102325.19;;;8.09;100.00
29909;BME280;36247;51.952;6.146;2023-05-17T00:31:16;102326.34;;;8.14;100.00
29909;BME280;36247;51.952;6.146;2023-05-17T00:33:43;102340.22;;;8.10;100.00
29909;BME280;36247;51.952;6.146;2023-05-17T00:36:08;102332.91;;;8.04;100.00
29909;BME280;36247;51.952;6.146;2023-05-17T00:38:34;102332.06;;;8.05;100.00
29909;BME280;36247;51.952;6.146;2023-05-17T00:41:00;102329.00;;;7.96;100.00
29909;BME280;36247;51.952;6.146;2023-05-17T00:43:27;102318.00;;;8.05;100.00
29909;BME280;36247;51.952;6.146;2023-05-17T00:45:52;102326.88;;;8.07;100.00
29909;BME280;36247;51.952;6.146;2023-05-17T00:48:18;102328.47;;;8.03;100.00
29909;BME280;36247;51.952;6.146;2023-05-17T00:50:50;102319.84;;;8.07;100.00
29909;BME280;36247;51.952;6.146;2023-05-17T00:53:17;102331.13;;;8.03;100.00
29909;BME280;36247;51.952;6.146;2023-05-17T00:55:44;102328.06;;;7.95;100.00
29909;BME280;36247;51.952;6.146;2023-05-17T00:58:10;102333.34;;;7.95;100.00
29909;BME280;36247;51.952;6.146;2023-05-17T01:00:37;102327.25;;;7.97;100.00
29909;BME280;36247;51.952;6.146;2023-05-17T01:03:04;102331.44;;;7.91;100.00
29909;BME280;36247;51.952;6.146;2023-05-17T01:05:30;102321.09;;;7.96;100.00
29909;BME280;36247;51.952;6.146;2023-05-17T01:07:56;102321.16;;;7.98;100.00
29909;BME280;36247;51.952;6.146;2023-05-17T01:10:35;102314.66;;;7.91;100.00
29909;BME280;36247;51.952;6.146;2023-05-17T01:13:08;102321.63;;;7.89;100.00
29909;BME280;36247;51.952;6.146;2023-05-17T01:15:42;102326.00;;;7.88;100.00
29909;BME280;36247;51.952;6.146;2023-05-17T01:18:18;102321.69;;;7.90;100.00
29909;BME280;36247;51.952;6.146;2023-05-17T01:20:47;102318.59;;;7.99;100.00
29909;BME280;36247;51.952;6.146;2023-05-17T01:26:31;102315.81;;;7.78;100.00
29909;BME280;36247;51.952;6.146;2023-05-17T01:29:01;102322.75;;;7.76;100.00
29909;BME280;36247;51.952;6.146;2023-05-17T01:31:27;102328.88;;;7.75;100.00
29909;BME280;36247;51.952;6.146;2023-05-17T01:33:54;102326.44;;;7.80;100.00
29909;BME280;36247;51.952;6.146;2023-05-17T01:36:22;102316.50;;;7.74;100.00
29909;BME280;36247;51.952;6.146;2023-05-17T01:38:47;102319.94;;;7.73;100.00
29909;BME280;36247;51.952;6.146;2023-05-17T01:43:49;102323.38;;;7.70;100.00
29909;BME280;36247;51.952;6.146;2023-05-17T01:46:39;102324.34;;;7.72;100.00
29909;BME280;36247;51.952;6.146;2023-05-17T01:49:20;102326.00;;;7.88;100.00
29909;BME280;36247;51.952;6.146;2023-05-17T01:51:57;102332.41;;;7.75;100.00
29909;BME280;36247;51.952;6.146;2023-05-17T01:54:44;102323.22;;;7.85;100.00
29909;BME280;36247;51.952;6.146;2023-05-17T01:57:13;102335.03;;;7.93;100.00
29909;BME280;36247;51.952;6.146;2023-05-17T01:59:41;102325.38;;;7.94;100.00
29909;BME280;36247;51.952;6.146;2023-05-17T02:02:08;102324.16;;;8.05;100.00
29909;BME280;36247;51.952;6.146;2023-05-17T02:04:35;102329.06;;;8.16;100.00
29909;BME280;36247;51.952;6.146;2023-05-17T02:07:01;102325.81;;;8.21;100.00
29909;BME280;36247;51.952;6.146;2023-05-17T02:09:28;102320.25;;;8.15;100.00
29909;BME280;36247;51.952;6.146;2023-05-17T02:11:54;102329.41;;;8.23;100.00
29909;BME280;36247;51.952;6.146;2023-05-17T02:14:20;102331.41;;;8.09;100.00
29909;BME280;36247;51.952;6.146;2023-05-17T02:16:45;102324.75;;;8.18;100.00
29909;BME280;36247;51.952;6.146;2023-05-17T02:19:11;102327.72;;;8.25;100.00
29909;BME280;36247;51.952;6.146;2023-05-17T02:21:38;102325.28;;;8.28;100.00
29909;BME280;36247;51.952;6.146;2023-05-17T02:24:05;102332.41;;;8.31;100.00
29909;BME280;36247;51.952;6.146;2023-05-17T02:26:31;102327.47;;;8.39;100.00
29909;BME280;36247;51.952;6.146;2023-05-17T02:28:57;102333.00;;;8.43;100.00
29909;BME280;36247;51.952;6.146;2023-05-17T02:31:23;102328.06;;;8.32;100.00
29909;BME280;36247;51.952;6.146;2023-05-17T02:33:54;102336.41;;;8.41;100.00
29909;BME280;36247;51.952;6.146;2023-05-17T02:36:21;102339.34;;;8.47;100.00
29909;BME280;36247;51.952;6.146;2023-05-17T02:38:47;102337.38;;;8.43;100.00
29909;BME280;36247;51.952;6.146;2023-05-17T02:41:14;102349.91;;;8.47;100.00
29909;BME280;36247;51.952;6.146;2023-05-17T02:43:40;102347.28;;;8.47;100.00
29909;BME280;36247;51.952;6.146;2023-05-17T02:46:05;102350.50;;;8.41;100.00
29909;BME280;36247;51.952;6.146;2023-05-17T02:48:31;102344.38;;;8.42;100.00
29909;BME280;36247;51.952;6.146;2023-05-17T02:50:56;102352.03;;;8.36;100.00
29909;BME280;36247;51.952;6.146;2023-05-17T02:53:22;102352.03;;;8.36;100.00
29909;BME280;36247;51.952;6.146;2023-05-17T02:55:47;102361.44;;;8.49;100.00
29909;BME280;36247;51.952;6.146;2023-05-17T02:58:13;102362.38;;;8.50;100.00
29909;BME280;36247;51.952;6.146;2023-05-17T03:00:38;102357.91;;;8.49;100.00
29909;BME280;36247;51.952;6.146;2023-05-17T03:03:05;102364.94;;;8.48;100.00
29909;BME280;36247;51.952;6.146;2023-05-17T03:05:32;102374.94;;;8.55;100.00
29909;BME280;36247;51.952;6.146;2023-05-17T03:07:58;102369.16;;;8.44;100.00
29909;BME280;36247;51.952;6.146;2023-05-17T03:10:23;102378.72;;;8.42;100.00
29909;BME280;36247;51.952;6.146;2023-05-17T03:12:49;102382.78;;;8.36;100.00
29909;BME280;36247;51.952;6.146;2023-05-17T03:15:18;102388.00;;;8.34;100.00
29909;BME280;36247;51.952;6.146;2023-05-17T03:17:44;102388.06;;;8.36;100.00
29909;BME280;36247;51.952;6.146;2023-05-17T03:20:10;102393.34;;;8.36;100.00
29909;BME280;36247;51.952;6.146;2023-05-17T03:22:36;102392.56;;;8.19;100.00
29909;BME280;36247;51.952;6.146;2023-05-17T03:25:02;102395.50;;;8.25;100.00
29909;BME280;36247;51.952;6.146;2023-05-17T03:27:32;102390.28;;;8.26;100.00
29909;BME280;36247;51.952;6.146;2023-05-17T03:29:58;102394.88;;;8.30;100.00
29909;BME280;36247;51.952;6.146;2023-05-17T03:32:25;102403.91;;;8.36;100.00
29909;BME280;36247;51.952;6.146;2023-05-17T03:34:50;102405.22;;;8.26;100.00
29909;BME280;36247;51.952;6.146;2023-05-17T03:37:16;102409.19;;;8.36;100.00
29909;BME280;36247;51.952;6.146;2023-05-17T03:39:43;102409.34;;;8.39;100.00
29909;BME280;36247;51.952;6.146;2023-05-17T03:42:10;102416.59;;;8.43;100.00
29909;BME280;36247;51.952;6.146;2023-05-17T03:44:35;102408.44;;;8.38;100.00
29909;BME280;36247;51.952;6.146;2023-05-17T03:47:02;102412.56;;;8.50;100.00
29909;BME280;36247;51.952;6.146;2023-05-17T03:49:28;102414.97;;;8.45;100.00
29909;BME280;36247;51.952;6.146;2023-05-17T03:51:54;102416.44;;;8.58;100.00
29909;BME280;36247;51.952;6.146;2023-05-17T03:54:19;102422.47;;;8.55;100.00
29909;BME280;36247;51.952;6.146;2023-05-17T03:56:45;102425.69;;;8.48;100.00
29909;BME280;36247;51.952;6.146;2023-05-17T03:59:13;102418.13;;;8.38;100.00
29909;BME280;36247;51.952;6.146;2023-05-17T04:01:39;102430.88;;;8.28;100.00
29909;BME280;36247;51.952;6.146;2023-05-17T04:04:07;102427.63;;;8.34;100.00
29909;BME280;36247;51.952;6.146;2023-05-17T04:06:33;102427.41;;;8.29;100.00
29909;BME280;36247;51.952;6.146;2023-05-17T04:08:58;102426.28;;;8.24;100.00
29909;BME280;36247;51.952;6.146;2023-05-17T04:11:25;102435.69;;;8.37;100.00
29909;BME280;36247;51.952;6.146;2023-05-17T04:13:55;102435.75;;;8.39;100.00
29909;BME280;36247;51.952;6.146;2023-05-17T04:16:21;102430.41;;;8.37;100.00
29909;BME280;36247;51.952;6.146;2023-05-17T04:18:47;102428.63;;;8.36;100.00
29909;BME280;36247;51.952;6.146;2023-05-17T04:21:17;102437.88;;;8.28;100.00
29909;BME280;36247;51.952;6.146;2023-05-17T04:23:43;102441.53;;;8.30;100.00
29909;BME280;36247;51.952;6.146;2023-05-17T04:26:09;102447.84;;;8.34;100.00
29909;BME280;36247;51.952;6.146;2023-05-17T04:28:37;102441.75;;;8.35;100.00
29909;BME280;36247;51.952;6.146;2023-05-17T04:31:07;102445.00;;;8.47;100.00
29909;BME280;36247;51.952;6.146;2023-05-17T04:33:33;102448.88;;;8.37;100.00
29909;BME280;36247;51.952;6.146;2023-05-17T04:35:59;102453.88;;;8.31;100.00
29909;BME280;36247;51.952;6.146;2023-05-17T04:38:27;102456.47;;;8.47;100.00
29909;BME280;36247;51.952;6.146;2023-05-17T04:40:53;102455.25;;;8.41;100.00
29909;BME280;36247;51.952;6.146;2023-05-17T04:43:19;102458.66;;;8.56;100.00
29909;BME280;36247;51.952;6.146;2023-05-17T04:45:45;102457.31;;;8.46;100.00
29909;BME280;36247;51.952;6.146;2023-05-17T04:48:11;102460.38;;;8.74;100.00
29909;BME280;36247;51.952;6.146;2023-05-17T04:50:36;102469.13;;;8.73;100.00
29909;BME280;36247;51.952;6.146;2023-05-17T04:53:03;102468.19;;;8.90;100.00
29909;BME280;36247;51.952;6.146;2023-05-17T04:55:34;102469.44;;;8.98;100.00
29909;BME280;36247;51.952;6.146;2023-05-17T04:58:00;102483.22;;;8.91;100.00
29909;BME280;36247;51.952;6.146;2023-05-17T05:00:25;102475.66;;;8.99;100.00
29909;BME280;36247;51.952;6.146;2023-05-17T05:02:58;102485.06;;;8.94;100.00
29909;BME280;36247;51.952;6.146;2023-05-17T05:05:24;102474.66;;;9.16;100.00
29909;BME280;36247;51.952;6.146;2023-05-17T05:07:50;102481.00;;;9.20;100.00
29909;BME280;36247;51.952;6.146;2023-05-17T05:10:16;102478.44;;;9.41;100.00
29909;BME280;36247;51.952;6.146;2023-05-17T05:12:43;102481.94;;;9.61;100.00
29909;BME280;36247;51.952;6.146;2023-05-17T05:15:10;102482.63;;;9.36;100.00
29909;BME280;36247;51.952;6.146;2023-05-17T05:17:38;102487.41;;;9.64;100.00
29909;BME280;36247;51.952;6.146;2023-05-17T05:20:05;102481.06;;;9.61;100.00
29909;BME280;36247;51.952;6.146;2023-05-17T05:22:31;102483.06;;;9.66;100.00
29909;BME280;36247;51.952;6.146;2023-05-17T05:24:57;102495.91;;;9.38;100.00
29909;BME280;36247;51.952;6.146;2023-05-17T05:27:23;102501.97;;;9.35;100.00
29909;BME280;36247;51.952;6.146;2023-05-17T05:29:49;102502.31;;;9.43;100.00
29909;BME280;36247;51.952;6.146;2023-05-17T05:32:15;102512.00;;;9.42;100.00
29909;BME280;36247;51.952;6.146;2023-05-17T05:34:44;102510.78;;;9.55;100.00
29909;BME280;36247;51.952;6.146;2023-05-17T05:37:10;102500.84;;;9.69;100.00
29909;BME280;36247;51.952;6.146;2023-05-17T05:39:36;102509.25;;;9.80;100.00
29909;BME280;36247;51.952;6.146;2023-05-17T05:42:02;102509.00;;;9.95;100.00
29909;BME280;36247;51.952;6.146;2023-05-17T05:44:29;102521.47;;;9.97;100.00
29909;BME280;36247;51.952;6.146;2023-05-17T05:46:55;102515.81;;;9.89;100.00
29909;BME280;36247;51.952;6.146;2023-05-17T05:49:22;102527.88;;;10.02;100.00
29909;BME280;36247;51.952;6.146;2023-05-17T05:51:48;102523.19;;;9.97;100.00
29909;BME280;36247;51.952;6.146;2023-05-17T05:54:15;102531.47;;;10.04;100.00
29909;BME280;36247;51.952;6.146;2023-05-17T05:56:41;102541.75;;;10.18;100.00
29909;BME280;36247;51.952;6.146;2023-05-17T05:59:11;102534.91;;;10.02;100.00
29909;BME280;36247;51.952;6.146;2023-05-17T06:01:37;102542.25;;;10.50;100.00
29909;BME280;36247;51.952;6.146;2023-05-17T06:04:03;102538.97;;;10.78;100.00
29909;BME280;36247;51.952;6.146;2023-05-17T06:06:31;102545.88;;;10.74;100.00
29909;BME280;36247;51.952;6.146;2023-05-17T06:08:56;102555.28;;;10.66;100.00
29909;BME280;36247;51.952;6.146;2023-05-17T06:11:24;102544.97;;;10.51;100.00
29909;BME280;36247;51.952;6.146;2023-05-17T06:13:50;102559.59;;;10.22;100.00
29909;BME280;36247;51.952;6.146;2023-05-17T06:16:16;102554.72;;;10.73;100.00
29909;BME280;36247;51.952;6.146;2023-05-17T06:18:41;102558.03;;;10.90;100.00
29909;BME280;36247;51.952;6.146;2023-05-17T06:21:07;102560.91;;;10.74;100.00
29909;BME280;36247;51.952;6.146;2023-05-17T06:23:34;102554.97;;;11.02;100.00
29909;BME280;36247;51.952;6.146;2023-05-17T06:26:00;102562.84;;;11.01;100.00
29909;BME280;36247;51.952;6.146;2023-05-17T06:28:25;102567.88;;;11.16;100.00
29909;BME280;36247;51.952;6.146;2023-05-17T06:30:51;102556.22;;;11.12;100.00
29909;BME280;36247;51.952;6.146;2023-05-17T06:33:18;102566.56;;;10.83;100.00
29909;BME280;36247;51.952;6.146;2023-05-17T06:35:44;102568.56;;;10.89;100.00
29909;BME280;36247;51.952;6.146;2023-05-17T06:38:11;102571.66;;;10.56;100.00
29909;BME280;36247;51.952;6.146;2023-05-17T06:40:36;102568.09;;;10.34;100.00
29909;BME280;36247;51.952;6.146;2023-05-17T06:43:03;102568.13;;;10.55;100.00
29909;BME280;36247;51.952;6.146;2023-05-17T06:45:30;102571.22;;;10.89;100.00
29909;BME280;36247;51.952;6.146;2023-05-17T06:47:56;102576.13;;;11.01;100.00
29909;BME280;36247;51.952;6.146;2023-05-17T06:50:22;102570.75;;;11.22;100.00
29909;BME280;36247;51.952;6.146;2023-05-17T06:52:47;102575.22;;;11.23;100.00
29909;BME280;36247;51.952;6.146;2023-05-17T06:55:13;102578.25;;;11.09;100.00
29909;BME280;36247;51.952;6.146;2023-05-17T06:57:38;102577.25;;;11.07;100.00
29909;BME280;36247;51.952;6.146;2023-05-17T07:00:06;102571.97;;;11.30;100.00
29909;BME280;36247;51.952;6.146;2023-05-17T07:02:36;102581.38;;;11.22;100.00
29909;BME280;36247;51.952;6.146;2023-05-17T07:05:06;102580.16;;;11.36;100.00
29909;BME280;36247;51.952;6.146;2023-05-17T07:07:31;102581.72;;;11.31;100.00
29909;BME280;36247;51.952;6.146;2023-05-17T07:09:57;102575.75;;;11.61;100.00
29909;BME280;36247;51.952;6.146;2023-05-17T07:12:22;102577.63;;;11.88;100.00
29909;BME280;36247;51.952;6.146;2023-05-17T07:14:48;102584.09;;;11.47;100.00
29909;BME280;36247;51.952;6.146;2023-05-17T07:17:14;102590.59;;;11.32;100.00
29909;BME280;36247;51.952;6.146;2023-05-17T07:19:39;102588.44;;;11.21;100.00
29909;BME280;36247;51.952;6.146;2023-05-17T07:22:06;102594.63;;;11.22;100.00
29909;BME280;36247;51.952;6.146;2023-05-17T07:24:31;102597.28;;;10.99;100.00
29909;BME280;36247;51.952;6.146;2023-05-17T07:26:57;102597.63;;;11.08;100.00
29909;BME280;36247;51.952;6.146;2023-05-17T07:29:23;102597.34;;;11.01;100.00
29909;BME280;36247;51.952;6.146;2023-05-17T07:31:48;102603.66;;;11.27;100.00
29909;BME280;36247;51.952;6.146;2023-05-17T07:34:14;102602.38;;;12.09;100.00
29909;BME280;36247;51.952;6.146;2023-05-17T07:36:39;102609.00;;;11.74;100.00
29909;BME280;36247;51.952;6.146;2023-05-17T07:39:06;102602.72;;;11.94;100.00
29909;BME280;36247;51.952;6.146;2023-05-17T07:41:33;102610.28;;;11.85;100.00
29909;BME280;36247;51.952;6.146;2023-05-17T07:43:59;102606.19;;;12.69;100.00
29909;BME280;36247;51.952;6.146;2023-05-17T07:46:25;102608.38;;;12.29;100.00
29909;BME280;36247;51.952;6.146;2023-05-17T07:48:50;102602.69;;;12.72;100.00
29909;BME280;36247;51.952;6.146;2023-05-17T07:51:16;102608.56;;;12.35;100.00
29909;BME280;36247;51.952;6.146;2023-05-17T07:53:41;102611.34;;;12.13;100.00
29909;BME280;36247;51.952;6.146;2023-05-17T07:56:07;102612.75;;;12.27;100.00
29909;BME280;36247;51.952;6.146;2023-05-17T07:58:33;102622.13;;;12.17;100.00
29909;BME280;36247;51.952;6.146;2023-05-17T08:01:00;102619.22;;;12.35;100.00
29909;BME280;36247;51.952;6.146;2023-05-17T08:03:25;102623.63;;;12.61;100.00
29909;BME280;36247;51.952;6.146;2023-05-17T08:05:52;102626.38;;;12.64;100.00
29909;BME280;36247;51.952;6.146;2023-05-17T08:08:18;102628.84;;;12.58;100.00
29909;BME280;36247;51.952;6.146;2023-05-17T08:10:45;102625.34;;;13.13;100.00
29909;BME280;36247;51.952;6.146;2023-05-17T08:13:11;102630.38;;;13.33;100.00
29909;BME280;36247;51.952;6.146;2023-05-17T08:15:36;102623.75;;;13.47;100.00
29909;BME280;36247;51.952;6.146;2023-05-17T08:18:03;102628.91;;;13.41;100.00
29909;BME280;36247;51.952;6.146;2023-05-17T08:20:28;102630.19;;;13.27;100.00
29909;BME280;36247;51.952;6.146;2023-05-17T08:22:54;102633.41;;;12.62;100.00
29909;BME280;36247;51.952;6.146;2023-05-17T08:25:20;102631.81;;;13.21;100.00
29909;BME280;36247;51.952;6.146;2023-05-17T08:27:45;102627.13;;;12.85;100.00
29909;BME280;36247;51.952;6.146;2023-05-17T08:30:11;102621.63;;;13.08;100.00
29909;BME280;36247;51.952;6.146;2023-05-17T08:32:37;102624.50;;;13.72;100.00
29909;BME280;36247;51.952;6.146;2023-05-17T08:35:03;102620.34;;;13.51;100.00
29909;BME280;36247;51.952;6.146;2023-05-17T08:37:32;102626.94;;;13.35;100.00
29909;BME280;36247;51.952;6.146;2023-05-17T08:40:00;102630.78;;;13.74;100.00
29909;BME280;36247;51.952;6.146;2023-05-17T08:42:27;102628.22;;;14.09;100.00
29909;BME280;36247;51.952;6.146;2023-05-17T08:44:54;102626.84;;;13.91;100.00
29909;BME280;36247;51.952;6.146;2023-05-17T08:47:20;102630.53;;;13.97;100.00
29909;BME280;36247;51.952;6.146;2023-05-17T08:49:59;102625.72;;;14.15;100.00
29909;BME280;36247;51.952;6.146;2023-05-17T08:52:29;102630.44;;;14.25;100.00
29909;BME280;36247;51.952;6.146;2023-05-17T08:54:59;102632.56;;;14.39;100.00
29909;BME280;36247;51.952;6.146;2023-05-17T08:57:29;102638.44;;;14.25;100.00
29909;BME280;36247;51.952;6.146;2023-05-17T08:59:57;102640.09;;;13.88;100.00
29909;BME280;36247;51.952;6.146;2023-05-17T09:02:25;102640.84;;;13.84;100.00
29909;BME280;36247;51.952;6.146;2023-05-17T09:04:54;102633.81;;;14.52;100.00
29909;BME280;36247;51.952;6.146;2023-05-17T09:07:23;102632.50;;;13.72;100.00
29909;BME280;36247;51.952;6.146;2023-05-17T09:09:52;102630.88;;;14.09;100.00
29909;BME280;36247;51.952;6.146;2023-05-17T09:12:19;102630.22;;;15.21;100.00
29909;BME280;36247;51.952;6.146;2023-05-17T09:14:46;102640.09;;;14.87;100.00
29909;BME280;36247;51.952;6.146;2023-05-17T09:17:20;102641.50;;;14.73;100.00
29909;BME280;36247;51.952;6.146;2023-05-17T09:19:49;102640.50;;;14.36;100.00
29909;BME280;36247;51.952;6.146;2023-05-17T09:22:19;102638.44;;;14.25;100.00
29909;BME280;36247;51.952;6.146;2023-05-17T09:24:45;102652.47;;;13.57;100.00
29909;BME280;36247;51.952;6.146;2023-05-17T09:27:15;102639.06;;;14.82;100.00
29909;BME280;36247;51.952;6.146;2023-05-17T09:29:44;102636.84;;;15.01;100.00
29909;BME280;36247;51.952;6.146;2023-05-17T09:32:18;102639.16;;;14.87;100.00
29909;BME280;36247;51.952;6.146;2023-05-17T09:34:47;102637.72;;;15.38;95.82
29909;BME280;36247;51.952;6.146;2023-05-17T09:37:17;102637.47;;;15.66;96.75
29909;BME280;36247;51.952;6.146;2023-05-17T09:39:46;102639.66;;;15.46;88.28
29909;BME280;36247;51.952;6.146;2023-05-17T09:42:12;102643.13;;;15.41;82.99
29909;BME280;36247;51.952;6.146;2023-05-17T09:44:46;102642.66;;;15.21;80.24
29909;BME280;36247;51.952;6.146;2023-05-17T09:47:21;102637.81;;;15.82;74.12
29909;BME280;36247;51.952;6.146;2023-05-17T09:49:47;102637.25;;;16.44;76.71
29909;BME280;36247;51.952;6.146;2023-05-17T09:52:16;102651.13;;;15.39;76.11
29909;BME280;36247;51.952;6.146;2023-05-17T09:54:42;102634.84;;;16.61;88.77
29909;BME280;36247;51.952;6.146;2023-05-17T09:57:07;102636.34;;;16.96;79.50
29909;BME280;36247;51.952;6.146;2023-05-17T09:59:35;102650.66;;;16.46;64.47
29909;BME280;36247;51.952;6.146;2023-05-17T10:02:01;102636.56;;;17.08;64.49
29909;BME280;36247;51.952;6.146;2023-05-17T10:04:29;102630.31;;;17.73;69.66
29909;BME280;36247;51.952;6.146;2023-05-17T10:06:57;102636.78;;;17.22;67.06
29909;BME280;36247;51.952;6.146;2023-05-17T10:09:25;102636.16;;;16.86;67.80
29909;BME280;36247;51.952;6.146;2023-05-17T10:11:51;102642.22;;;16.74;71.33
29909;BME280;36247;51.952;6.146;2023-05-17T10:14:29;102639.44;;;16.68;68.40
29909;BME280;36247;51.952;6.146;2023-05-17T10:16:57;102638.19;;;16.98;63.20
29909;BME280;36247;51.952;6.146;2023-05-17T10:19:24;102643.38;;;17.47;66.98
29909;BME280;36247;51.952;6.146;2023-05-17T10:21:51;102647.03;;;17.54;59.55
29909;BME280;36247;51.952;6.146;2023-05-17T10:24:19;102643.84;;;17.83;58.53
29909;BME280;36247;51.952;6.146;2023-05-17T10:26:51;102648.69;;;17.44;63.80
29909;BME280;36247;51.952;6.146;2023-05-17T10:29:18;102640.28;;;17.19;63.27
29909;BME280;36247;51.952;6.146;2023-05-17T10:31:46;102651.94;;;17.20;65.93
29909;BME280;36247;51.952;6.146;2023-05-17T10:34:15;102652.41;;;17.55;56.85
29909;BME280;36247;51.952;6.146;2023-05-17T10:36:45;102643.41;;;17.49;60.10
29909;BME280;36247;51.952;6.146;2023-05-17T10:39:14;102647.69;;;18.03;57.38
29909;BME280;36247;51.952;6.146;2023-05-17T10:41:43;102630.03;;;18.24;55.24
29909;BME280;36247;51.952;6.146;2023-05-17T10:44:12;102646.34;;;17.69;59.93
29909;BME280;36247;51.952;6.146;2023-05-17T10:46:39;102642.88;;;18.53;54.87
29909;BME280;36247;51.952;6.146;2023-05-17T10:49:05;102640.00;;;18.36;62.19
29909;BME280;36247;51.952;6.146;2023-05-17T10:51:35;102641.28;;;18.78;55.38
29909;BME280;36247;51.952;6.146;2023-05-17T10:54:14;102636.19;;;18.15;61.54
29909;BME280;36247;51.952;6.146;2023-05-17T10:56:47;102640.38;;;17.90;60.35
29909;BME280;36247;51.952;6.146;2023-05-17T11:04:20;102631.13;;;18.41;57.02
29909;BME280;36247;51.952;6.146;2023-05-17T11:06:51;102632.31;;;18.76;55.52
29909;BME280;36247;51.952;6.146;2023-05-17T11:09:16;102634.28;;;18.92;55.94
29909;BME280;36247;51.952;6.146;2023-05-17T11:12:04;102626.59;;;18.36;58.48
29909;BME280;36247;51.952;6.146;2023-05-17T11:17:13;102619.13;;;19.00;57.94
29909;BME280;36247;51.952;6.146;2023-05-17T11:19:54;102620.16;;;19.23;58.04
29909;BME280;36247;51.952;6.146;2023-05-17T11:22:23;102619.31;;;18.24;60.28
29909;BME280;36247;51.952;6.146;2023-05-17T11:24:55;102609.81;;;20.15;55.47
29909;BME280;36247;51.952;6.146;2023-05-17T11:27:22;102625.84;;;17.08;60.98
29909;BME280;36247;51.952;6.146;2023-05-17T11:29:54;102615.59;;;18.08;58.02
29909;BME280;36247;51.952;6.146;2023-05-17T11:32:28;102616.44;;;18.04;58.90
29909;BME280;36247;51.952;6.146;2023-05-17T11:34:53;102620.03;;;19.01;55.87
29909;BME280;36247;51.952;6.146;2023-05-17T11:37:26;102619.75;;;20.38;49.18
29909;BME280;36247;51.952;6.146;2023-05-17T11:40:04;102625.63;;;19.33;48.80
29909;BME280;36247;51.952;6.146;2023-05-17T11:42:35;102616.75;;;19.51;52.79
29909;BME280;36247;51.952;6.146;2023-05-17T11:45:06;102614.38;;;17.83;57.21
29909;BME280;36247;51.952;6.146;2023-05-17T11:47:37;102630.72;;;17.35;61.09
29909;BME280;36247;51.952;6.146;2023-05-17T11:50:06;102612.25;;;18.30;61.94
29909;BME280;36247;51.952;6.146;2023-05-17T11:52:35;102620.41;;;19.70;52.80
29909;BME280;36247;51.952;6.146;2023-05-17T11:55:06;102623.91;;;19.52;51.64
29909;BME280;36247;51.952;6.146;2023-05-17T11:57:37;102625.16;;;18.75;53.95
29909;BME280;36247;51.952;6.146;2023-05-17T12:00:06;102628.53;;;18.54;57.34
29909;BME280;36247;51.952;6.146;2023-05-17T12:02:38;102627.72;;;19.98;53.65
29909;BME280;36247;51.952;6.146;2023-05-17T12:05:07;102625.09;;;20.21;52.02
29909;BME280;36247;51.952;6.146;2023-05-17T12:07:35;102614.38;;;20.35;48.93
29909;BME280;36247;51.952;6.146;2023-05-17T12:10:03;102635.44;;;19.31;54.94
29909;BME280;36247;51.952;6.146;2023-05-17T12:12:31;102627.81;;;20.44;49.46
29909;BME280;36247;51.952;6.146;2023-05-17T12:14:57;102629.63;;;20.56;46.96
29909;BME280;36247;51.952;6.146;2023-05-17T12:17:36;102622.41;;;20.22;47.17
29909;BME280;36247;51.952;6.146;2023-05-17T12:20:07;102624.06;;;19.80;49.60
29909;BME280;36247;51.952;6.146;2023-05-17T12:22:51;102617.91;;;21.28;49.06
29909;BME280;36247;51.952;6.146;2023-05-17T12:25:21;102636.34;;;19.30;51.24
29909;BME280;36247;51.952;6.146;2023-05-17T12:27:50;102620.31;;;19.49;51.27
29909;BME280;36247;51.952;6.146;2023-05-17T12:30:16;102623.06;;;19.67;51.58
29909;BME280;36247;51.952;6.146;2023-05-17T12:32:43;102623.03;;;19.56;51.00
29909;BME280;36247;51.952;6.146;2023-05-17T12:35:11;102612.50;;;20.06;50.63
29909;BME280;36247;51.952;6.146;2023-05-17T12:37:37;102619.75;;;20.49;46.44
29909;BME280;36247;51.952;6.146;2023-05-17T12:40:06;102618.88;;;20.54;44.87
29909;BME280;36247;51.952;6.146;2023-05-17T12:42:35;102616.19;;;20.71;46.24
29909;BME280;36247;51.952;6.146;2023-05-17T12:45:00;102615.25;;;20.52;45.70
29909;BME280;36247;51.952;6.146;2023-05-17T12:47:30;102615.25;;;20.32;45.63
29909;BME280;36247;51.952;6.146;2023-05-17T12:49:59;102612.50;;;20.11;47.99
29909;BME280;36247;51.952;6.146;2023-05-17T12:52:25;102615.25;;;20.29;49.96
29909;BME280;36247;51.952;6.146;2023-05-17T12:54:50;102622.34;;;20.01;47.65
29909;BME280;36247;51.952;6.146;2023-05-17T12:57:16;102611.63;;;20.10;48.22
29909;BME280;36247;51.952;6.146;2023-05-17T12:59:50;102613.47;;;20.51;50.63
29909;BME280;36247;51.952;6.146;2023-05-17T13:02:18;102628.72;;;20.52;45.12
29909;BME280;36247;51.952;6.146;2023-05-17T13:04:45;102614.41;;;20.84;43.30